sensor_id;sensor_type;location;lat;lon;timestamp;P1;durP1;ratioP1;P2;durP2;ratioP2
65799;SDS011;52544;48.116;11.660;2022-08-21T00:02:13;2.33;;;2.13;;
65799;SDS011;52544;48.116;11.660;2022-08-21T00:04:42;4.35;;;2.30;;
65799;SDS011;52544;48.116;11.660;2022-08-21T00:07:08;4.53;;;2.35;;
65799;SDS011;52544;48.116;11.660;2022-08-21T00:09:33;2.55;;;2.00;;
65799;SDS011;52544;48.116;11.660;2022-08-21T00:11:59;3.00;;;2.20;;
65799;SDS011;52544;48.116;11.660;2022-08-21T00:14:24;2.30;;;2.10;;
65799;SDS011;52544;48.116;11.660;2022-08-21T00:16:50;2.55;;;2.13;;
65799;SDS011;52544;48.116;11.660;2022-08-21T00:19:15;3.55;;;2.40;;
65799;SDS011;52544;48.116;11.660;2022-08-21T00:21:40;3.15;;;2.40;;
65799;SDS011;52544;48.116;11.660;2022-08-21T00:24:06;2.33;;;2.03;;
65799;SDS011;52544;48.116;11.660;2022-08-21T00:26:31;4.03;;;2.22;;
65799;SDS011;52544;48.116;11.660;2022-08-21T00:28:57;3.08;;;2.28;;
65799;SDS011;52544;48.116;11.660;2022-08-21T00:31:23;3.30;;;2.40;;
65799;SDS011;52544;48.116;11.660;2022-08-21T00:33:48;3.08;;;2.20;;
65799;SDS011;52544;48.116;11.660;2022-08-21T00:36:14;3.28;;;2.35;;
65799;SDS011;52544;48.116;11.660;2022-08-21T00:38:39;3.22;;;2.13;;
65799;SDS011;52544;48.116;11.660;2022-08-21T00:41:06;3.45;;;2.28;;
65799;SDS011;52544;48.116;11.660;2022-08-21T00:43:34;2.55;;;2.10;;
65799;SDS011;52544;48.116;11.660;2022-08-21T00:46:02;3.42;;;2.10;;
65799;SDS011;52544;48.116;11.660;2022-08-21T00:48:29;3.10;;;1.92;;
65799;SDS011;52544;48.116;11.660;2022-08-21T00:50:56;4.05;;;2.35;;
65799;SDS011;52544;48.116;11.660;2022-08-21T00:53:24;4.35;;;2.33;;
65799;SDS011;52544;48.116;11.660;2022-08-21T00:55:52;2.47;;;2.08;;
65799;SDS011;52544;48.116;11.660;2022-08-21T00:58:19;5.95;;;2.20;;
65799;SDS011;52544;48.116;11.660;2022-08-21T01:00:46;2.63;;;2.10;;
65799;SDS011;52544;48.116;11.660;2022-08-21T01:03:14;3.80;;;2.10;;
65799;SDS011;52544;48.116;11.660;2022-08-21T01:05:44;2.38;;;1.88;;
65799;SDS011;52544;48.116;11.660;2022-08-21T01:08:10;2.63;;;1.90;;
65799;SDS011;52544;48.116;11.660;2022-08-21T01:10:38;1.55;;;1.40;;
65799;SDS011;52544;48.116;11.660;2022-08-21T01:13:06;2.28;;;1.63;;
65799;SDS011;52544;48.116;11.660;2022-08-21T01:15:36;2.15;;;1.88;;
65799;SDS011;52544;48.116;11.660;2022-08-21T01:18:06;2.47;;;1.70;;
65799;SDS011;52544;48.116;11.660;2022-08-21T01:20:34;4.13;;;1.98;;
65799;SDS011;52544;48.116;11.660;2022-08-21T01:23:02;3.03;;;1.75;;
65799;SDS011;52544;48.116;11.660;2022-08-21T01:25:29;2.72;;;1.83;;
65799;SDS011;52544;48.116;11.660;2022-08-21T01:27:56;2.25;;;1.60;;
65799;SDS011;52544;48.116;11.660;2022-08-21T01:30:26;4.03;;;1.60;;
65799;SDS011;52544;48.116;11.660;2022-08-21T01:32:53;2.30;;;1.80;;
65799;SDS011;52544;48.116;11.660;2022-08-21T01:35:20;1.77;;;1.33;;
65799;SDS011;52544;48.116;11.660;2022-08-21T01:37:47;2.58;;;1.80;;
65799;SDS011;52544;48.116;11.660;2022-08-21T01:40:14;2.72;;;1.70;;
65799;SDS011;52544;48.116;11.660;2022-08-21T01:42:41;2.67;;;1.73;;
65799;SDS011;52544;48.116;11.660;2022-08-21T01:45:08;3.40;;;1.80;;
65799;SDS011;52544;48.116;11.660;2022-08-21T01:47:34;2.28;;;1.63;;
65799;SDS011;52544;48.116;11.660;2022-08-21T01:50:00;2.17;;;1.50;;
65799;SDS011;52544;48.116;11.660;2022-08-21T01:52:26;3.13;;;1.50;;
65799;SDS011;52544;48.116;11.660;2022-08-21T01:54:52;2.15;;;1.60;;
65799;SDS011;52544;48.116;11.660;2022-08-21T01:57:17;3.28;;;1.73;;
65799;SDS011;52544;48.116;11.660;2022-08-21T01:59:42;6.10;;;1.98;;
65799;SDS011;52544;48.116;11.660;2022-08-21T02:02:08;2.10;;;1.58;;
65799;SDS011;52544;48.116;11.660;2022-08-21T02:04:33;2.35;;;1.65;;
65799;SDS011;52544;48.116;11.660;2022-08-21T02:06:59;1.88;;;1.65;;
65799;SDS011;52544;48.116;11.660;2022-08-21T02:09:25;2.47;;;1.88;;
65799;SDS011;52544;48.116;11.660;2022-08-21T02:11:51;3.22;;;1.58;;
65799;SDS011;52544;48.116;11.660;2022-08-21T02:14:16;2.47;;;1.38;;
65799;SDS011;52544;48.116;11.660;2022-08-21T02:16:43;2.00;;;1.40;;
65799;SDS011;52544;48.116;11.660;2022-08-21T02:19:09;1.70;;;1.60;;
65799;SDS011;52544;48.116;11.660;2022-08-21T02:21:36;1.83;;;1.58;;
65799;SDS011;52544;48.116;11.660;2022-08-21T02:24:02;1.98;;;1.77;;
65799;SDS011;52544;48.116;11.660;2022-08-21T02:26:28;1.92;;;1.73;;
65799;SDS011;52544;48.116;11.660;2022-08-21T02:28:53;2.15;;;1.55;;
65799;SDS011;52544;48.116;11.660;2022-08-21T02:31:19;1.63;;;1.50;;
65799;SDS011;52544;48.116;11.660;2022-08-21T02:33:44;2.30;;;1.50;;
65799;SDS011;52544;48.116;11.660;2022-08-21T02:36:10;2.75;;;1.65;;
65799;SDS011;52544;48.116;11.660;2022-08-21T02:38:36;2.70;;;1.50;;
65799;SDS011;52544;48.116;11.660;2022-08-21T02:41:09;4.85;;;1.88;;
65799;SDS011;52544;48.116;11.660;2022-08-21T02:43:37;1.58;;;1.42;;
65799;SDS011;52544;48.116;11.660;2022-08-21T02:46:03;2.10;;;1.77;;
65799;SDS011;52544;48.116;11.660;2022-08-21T02:48:30;1.50;;;1.40;;
65799;SDS011;52544;48.116;11.660;2022-08-21T02:50:59;3.50;;;1.40;;
65799;SDS011;52544;48.116;11.660;2022-08-21T02:53:27;3.90;;;1.70;;
65799;SDS011;52544;48.116;11.660;2022-08-21T02:55:55;1.65;;;1.52;;
65799;SDS011;52544;48.116;11.660;2022-08-21T02:58:27;2.75;;;1.65;;
65799;SDS011;52544;48.116;11.660;2022-08-21T03:00:56;2.53;;;1.63;;
65799;SDS011;52544;48.116;11.660;2022-08-21T03:03:23;2.92;;;1.63;;
65799;SDS011;52544;48.116;11.660;2022-08-21T03:05:50;4.30;;;1.65;;
65799;SDS011;52544;48.116;11.660;2022-08-21T03:08:16;3.10;;;1.50;;
65799;SDS011;52544;48.116;11.660;2022-08-21T03:10:47;3.22;;;1.58;;
65799;SDS011;52544;48.116;11.660;2022-08-21T03:13:14;3.50;;;1.85;;
65799;SDS011;52544;48.116;11.660;2022-08-21T03:15:41;4.32;;;1.52;;
65799;SDS011;52544;48.116;11.660;2022-08-21T03:18:08;5.38;;;2.03;;
65799;SDS011;52544;48.116;11.660;2022-08-21T03:20:34;1.88;;;1.50;;
65799;SDS011;52544;48.116;11.660;2022-08-21T03:23:01;2.95;;;1.63;;
65799;SDS011;52544;48.116;11.660;2022-08-21T03:25:28;1.70;;;1.60;;
65799;SDS011;52544;48.116;11.660;2022-08-21T03:27:57;2.00;;;1.70;;
65799;SDS011;52544;48.116;11.660;2022-08-21T03:30:23;5.63;;;2.00;;
65799;SDS011;52544;48.116;11.660;2022-08-21T03:32:48;3.08;;;1.70;;
65799;SDS011;52544;48.116;11.660;2022-08-21T03:35:14;3.92;;;2.08;;
65799;SDS011;52544;48.116;11.660;2022-08-21T03:37:39;3.65;;;1.58;;
65799;SDS011;52544;48.116;11.660;2022-08-21T03:40:06;6.55;;;2.65;;
65799;SDS011;52544;48.116;11.660;2022-08-21T03:42:33;2.40;;;1.80;;
65799;SDS011;52544;48.116;11.660;2022-08-21T03:44:59;2.78;;;1.65;;
65799;SDS011;52544;48.116;11.660;2022-08-21T03:47:25;3.85;;;1.80;;
65799;SDS011;52544;48.116;11.660;2022-08-21T03:49:50;3.67;;;1.70;;
65799;SDS011;52544;48.116;11.660;2022-08-21T03:52:16;3.55;;;1.85;;
65799;SDS011;52544;48.116;11.660;2022-08-21T03:54:42;2.30;;;1.70;;
65799;SDS011;52544;48.116;11.660;2022-08-21T03:57:08;2.42;;;2.20;;
65799;SDS011;52544;48.116;11.660;2022-08-21T03:59:34;1.67;;;1.58;;
65799;SDS011;52544;48.116;11.660;2022-08-21T04:02:01;2.42;;;1.98;;
65799;SDS011;52544;48.116;11.660;2022-08-21T04:04:29;4.25;;;1.98;;
65799;SDS011;52544;48.116;11.660;2022-08-21T04:06:56;1.65;;;1.50;;
65799;SDS011;52544;48.116;11.660;2022-08-21T04:09:22;2.00;;;1.63;;
65799;SDS011;52544;48.116;11.660;2022-08-21T04:11:48;2.22;;;1.70;;
65799;SDS011;52544;48.116;11.660;2022-08-21T04:14:14;2.35;;;1.98;;
65799;SDS011;52544;48.116;11.660;2022-08-21T04:16:40;2.78;;;1.80;;
65799;SDS011;52544;48.116;11.660;2022-08-21T04:19:07;1.98;;;1.77;;
65799;SDS011;52544;48.116;11.660;2022-08-21T04:21:32;2.63;;;1.98;;
65799;SDS011;52544;48.116;11.660;2022-08-21T04:23:58;2.28;;;2.00;;
65799;SDS011;52544;48.116;11.660;2022-08-21T04:26:24;2.13;;;1.52;;
65799;SDS011;52544;48.116;11.660;2022-08-21T04:28:51;2.05;;;1.80;;
65799;SDS011;52544;48.116;11.660;2022-08-21T04:31:17;2.60;;;1.80;;
65799;SDS011;52544;48.116;11.660;2022-08-21T04:33:43;2.00;;;1.70;;
65799;SDS011;52544;48.116;11.660;2022-08-21T04:36:09;2.20;;;1.65;;
65799;SDS011;52544;48.116;11.660;2022-08-21T04:38:35;5.43;;;1.95;;
65799;SDS011;52544;48.116;11.660;2022-08-21T04:41:01;2.63;;;1.73;;
65799;SDS011;52544;48.116;11.660;2022-08-21T04:43:26;6.32;;;1.83;;
65799;SDS011;52544;48.116;11.660;2022-08-21T04:45:53;6.90;;;2.25;;
65799;SDS011;52544;48.116;11.660;2022-08-21T04:48:21;2.75;;;2.45;;
65799;SDS011;52544;48.116;11.660;2022-08-21T04:51:08;2.75;;;2.40;;
65799;SDS011;52544;48.116;11.660;2022-08-21T04:53:40;3.00;;;1.80;;
65799;SDS011;52544;48.116;11.660;2022-08-21T04:56:18;1.63;;;1.52;;
65799;SDS011;52544;48.116;11.660;2022-08-21T04:58:47;3.05;;;2.00;;
65799;SDS011;52544;48.116;11.660;2022-08-21T05:01:15;2.38;;;1.80;;
65799;SDS011;52544;48.116;11.660;2022-08-21T05:03:44;2.88;;;1.70;;
65799;SDS011;52544;48.116;11.660;2022-08-21T05:06:11;2.10;;;1.73;;
65799;SDS011;52544;48.116;11.660;2022-08-21T05:08:39;2.08;;;1.65;;
65799;SDS011;52544;48.116;11.660;2022-08-21T05:11:06;2.28;;;1.70;;
65799;SDS011;52544;48.116;11.660;2022-08-21T05:13:32;3.75;;;2.08;;
65799;SDS011;52544;48.116;11.660;2022-08-21T05:15:57;5.07;;;2.10;;
65799;SDS011;52544;48.116;11.660;2022-08-21T05:18:24;2.38;;;1.90;;
65799;SDS011;52544;48.116;11.660;2022-08-21T05:20:49;2.03;;;1.70;;
65799;SDS011;52544;48.116;11.660;2022-08-21T05:23:15;5.47;;;2.00;;
65799;SDS011;52544;48.116;11.660;2022-08-21T05:25:41;2.10;;;1.88;;
65799;SDS011;52544;48.116;11.660;2022-08-21T05:28:08;3.17;;;2.38;;
65799;SDS011;52544;48.116;11.660;2022-08-21T05:30:36;4.03;;;2.42;;
65799;SDS011;52544;48.116;11.660;2022-08-21T05:33:02;3.20;;;1.90;;
65799;SDS011;52544;48.116;11.660;2022-08-21T05:35:29;2.67;;;2.03;;
65799;SDS011;52544;48.116;11.660;2022-08-21T05:37:57;2.30;;;1.75;;
65799;SDS011;52544;48.116;11.660;2022-08-21T05:40:23;3.47;;;2.00;;
65799;SDS011;52544;48.116;11.660;2022-08-21T05:42:49;2.00;;;1.67;;
65799;SDS011;52544;48.116;11.660;2022-08-21T05:45:15;2.35;;;1.70;;
65799;SDS011;52544;48.116;11.660;2022-08-21T05:47:40;2.13;;;1.73;;
65799;SDS011;52544;48.116;11.660;2022-08-21T05:50:06;2.92;;;1.90;;
65799;SDS011;52544;48.116;11.660;2022-08-21T05:52:32;2.85;;;2.13;;
65799;SDS011;52544;48.116;11.660;2022-08-21T05:54:57;2.78;;;2.13;;
65799;SDS011;52544;48.116;11.660;2022-08-21T05:57:22;2.17;;;1.90;;
65799;SDS011;52544;48.116;11.660;2022-08-21T05:59:48;4.00;;;1.75;;
65799;SDS011;52544;48.116;11.660;2022-08-21T06:02:16;1.83;;;1.70;;
65799;SDS011;52544;48.116;11.660;2022-08-21T06:04:43;2.20;;;1.77;;
65799;SDS011;52544;48.116;11.660;2022-08-21T06:07:08;2.67;;;1.70;;
65799;SDS011;52544;48.116;11.660;2022-08-21T06:09:34;10.00;;;5.05;;
65799;SDS011;52544;48.116;11.660;2022-08-21T06:12:03;3.63;;;2.70;;
65799;SDS011;52544;48.116;11.660;2022-08-21T06:14:29;2.55;;;2.00;;
65799;SDS011;52544;48.116;11.660;2022-08-21T06:17:00;2.50;;;2.10;;
65799;SDS011;52544;48.116;11.660;2022-08-21T06:19:29;2.65;;;2.00;;
65799;SDS011;52544;48.116;11.660;2022-08-21T06:21:55;2.17;;;1.95;;
65799;SDS011;52544;48.116;11.660;2022-08-21T06:24:20;2.22;;;1.98;;
65799;SDS011;52544;48.116;11.660;2022-08-21T06:26:46;2.40;;;1.63;;
65799;SDS011;52544;48.116;11.660;2022-08-21T06:29:12;5.75;;;1.75;;
65799;SDS011;52544;48.116;11.660;2022-08-21T06:31:41;2.50;;;1.73;;
65799;SDS011;52544;48.116;11.660;2022-08-21T06:34:07;3.47;;;2.58;;
65799;SDS011;52544;48.116;11.660;2022-08-21T06:36:32;5.80;;;2.40;;
65799;SDS011;52544;48.116;11.660;2022-08-21T06:38:57;5.07;;;2.80;;
65799;SDS011;52544;48.116;11.660;2022-08-21T06:41:23;6.03;;;2.58;;
65799;SDS011;52544;48.116;11.660;2022-08-21T06:43:48;3.08;;;2.13;;
65799;SDS011;52544;48.116;11.660;2022-08-21T06:46:14;4.32;;;1.75;;
65799;SDS011;52544;48.116;11.660;2022-08-21T06:48:39;4.75;;;2.13;;
65799;SDS011;52544;48.116;11.660;2022-08-21T06:51:05;3.70;;;2.13;;
65799;SDS011;52544;48.116;11.660;2022-08-21T06:53:30;4.55;;;1.90;;
65799;SDS011;52544;48.116;11.660;2022-08-21T06:55:56;3.88;;;2.00;;
65799;SDS011;52544;48.116;11.660;2022-08-21T06:58:21;4.57;;;2.10;;
65799;SDS011;52544;48.116;11.660;2022-08-21T07:00:47;4.07;;;2.40;;
65799;SDS011;52544;48.116;11.660;2022-08-21T07:03:17;3.30;;;2.30;;
65799;SDS011;52544;48.116;11.660;2022-08-21T07:05:52;3.42;;;2.10;;
65799;SDS011;52544;48.116;11.660;2022-08-21T07:08:18;3.00;;;2.25;;
65799;SDS011;52544;48.116;11.660;2022-08-21T07:10:44;4.22;;;2.38;;
65799;SDS011;52544;48.116;11.660;2022-08-21T07:13:11;3.80;;;2.22;;
65799;SDS011;52544;48.116;11.660;2022-08-21T07:15:36;4.45;;;2.40;;
65799;SDS011;52544;48.116;11.660;2022-08-21T07:18:02;4.53;;;2.65;;
65799;SDS011;52544;48.116;11.660;2022-08-21T07:20:28;3.65;;;2.63;;
65799;SDS011;52544;48.116;11.660;2022-08-21T07:22:54;6.13;;;3.90;;
65799;SDS011;52544;48.116;11.660;2022-08-21T07:25:21;5.75;;;3.50;;
65799;SDS011;52544;48.116;11.660;2022-08-21T07:27:46;5.10;;;2.80;;
65799;SDS011;52544;48.116;11.660;2022-08-21T07:30:12;6.20;;;2.55;;
65799;SDS011;52544;48.116;11.660;2022-08-21T07:32:37;3.65;;;2.85;;
65799;SDS011;52544;48.116;11.660;2022-08-21T07:35:03;4.95;;;3.78;;
65799;SDS011;52544;48.116;11.660;2022-08-21T07:37:29;7.35;;;3.13;;
65799;SDS011;52544;48.116;11.660;2022-08-21T07:39:54;3.92;;;2.88;;
65799;SDS011;52544;48.116;11.660;2022-08-21T07:42:20;4.22;;;2.75;;
65799;SDS011;52544;48.116;11.660;2022-08-21T07:44:45;6.30;;;2.90;;
65799;SDS011;52544;48.116;11.660;2022-08-21T07:47:10;5.25;;;2.70;;
65799;SDS011;52544;48.116;11.660;2022-08-21T07:49:36;4.28;;;2.83;;
65799;SDS011;52544;48.116;11.660;2022-08-21T07:52:01;5.28;;;3.38;;
65799;SDS011;52544;48.116;11.660;2022-08-21T07:54:27;6.05;;;3.00;;
65799;SDS011;52544;48.116;11.660;2022-08-21T07:56:52;8.32;;;3.70;;
65799;SDS011;52544;48.116;11.660;2022-08-21T07:59:18;3.70;;;2.83;;
65799;SDS011;52544;48.116;11.660;2022-08-21T08:01:43;7.43;;;4.53;;
65799;SDS011;52544;48.116;11.660;2022-08-21T08:04:09;6.25;;;3.10;;
65799;SDS011;52544;48.116;11.660;2022-08-21T08:06:34;4.30;;;3.05;;
65799;SDS011;52544;48.116;11.660;2022-08-21T08:09:00;5.93;;;2.95;;
65799;SDS011;52544;48.116;11.660;2022-08-21T08:11:28;6.22;;;2.88;;
65799;SDS011;52544;48.116;11.660;2022-08-21T08:13:53;5.47;;;2.88;;
65799;SDS011;52544;48.116;11.660;2022-08-21T08:16:19;4.63;;;2.65;;
65799;SDS011;52544;48.116;11.660;2022-08-21T08:18:44;4.63;;;2.72;;
65799;SDS011;52544;48.116;11.660;2022-08-21T08:21:10;6.00;;;3.03;;
65799;SDS011;52544;48.116;11.660;2022-08-21T08:23:38;5.35;;;2.72;;
65799;SDS011;52544;48.116;11.660;2022-08-21T08:26:03;4.78;;;3.28;;
65799;SDS011;52544;48.116;11.660;2022-08-21T08:28:30;4.40;;;3.17;;
65799;SDS011;52544;48.116;11.660;2022-08-21T08:30:56;9.48;;;3.40;;
65799;SDS011;52544;48.116;11.660;2022-08-21T08:33:22;8.63;;;3.28;;
65799;SDS011;52544;48.116;11.660;2022-08-21T08:35:49;4.30;;;3.13;;
65799;SDS011;52544;48.116;11.660;2022-08-21T08:38:17;6.38;;;3.83;;
65799;SDS011;52544;48.116;11.660;2022-08-21T08:43:17;5.32;;;3.60;;
65799;SDS011;52544;48.116;11.660;2022-08-21T08:45:45;7.85;;;3.53;;
65799;SDS011;52544;48.116;11.660;2022-08-21T08:48:19;7.18;;;4.28;;
65799;SDS011;52544;48.116;11.660;2022-08-21T08:50:56;7.25;;;3.75;;
65799;SDS011;52544;48.116;11.660;2022-08-21T08:53:29;6.55;;;3.67;;
65799;SDS011;52544;48.116;11.660;2022-08-21T08:55:58;7.80;;;3.92;;
65799;SDS011;52544;48.116;11.660;2022-08-21T08:58:43;8.38;;;3.67;;
65799;SDS011;52544;48.116;11.660;2022-08-21T09:01:12;6.82;;;3.80;;
65799;SDS011;52544;48.116;11.660;2022-08-21T09:03:42;6.47;;;3.80;;
65799;SDS011;52544;48.116;11.660;2022-08-21T09:09:22;6.18;;;3.72;;
65799;SDS011;52544;48.116;11.660;2022-08-21T09:12:07;7.70;;;4.00;;
65799;SDS011;52544;48.116;11.660;2022-08-21T09:20:12;5.45;;;3.30;;
65799;SDS011;52544;48.116;11.660;2022-08-21T09:28:35;4.75;;;3.40;;
65799;SDS011;52544;48.116;11.660;2022-08-21T09:31:07;6.15;;;3.95;;
65799;SDS011;52544;48.116;11.660;2022-08-21T09:33:36;7.18;;;3.90;;
65799;SDS011;52544;48.116;11.660;2022-08-21T09:36:02;5.78;;;3.78;;
65799;SDS011;52544;48.116;11.660;2022-08-21T09:38:33;7.13;;;3.70;;
65799;SDS011;52544;48.116;11.660;2022-08-21T09:41:03;5.63;;;3.35;;
65799;SDS011;52544;48.116;11.660;2022-08-21T09:43:30;7.15;;;3.35;;
65799;SDS011;52544;48.116;11.660;2022-08-21T09:48:37;5.00;;;3.38;;
65799;SDS011;52544;48.116;11.660;2022-08-21T09:51:25;6.47;;;3.53;;
65799;SDS011;52544;48.116;11.660;2022-08-21T09:53:55;6.78;;;3.38;;
65799;SDS011;52544;48.116;11.660;2022-08-21T09:59:43;6.35;;;3.17;;
65799;SDS011;52544;48.116;11.660;2022-08-21T10:04:59;4.05;;;3.30;;
65799;SDS011;52544;48.116;11.660;2022-08-21T10:07:28;4.50;;;3.25;;
65799;SDS011;52544;48.116;11.660;2022-08-21T10:10:03;8.15;;;3.28;;
65799;SDS011;52544;48.116;11.660;2022-08-21T10:12:33;5.35;;;3.35;;
65799;SDS011;52544;48.116;11.660;2022-08-21T10:15:13;4.68;;;3.28;;
65799;SDS011;52544;48.116;11.660;2022-08-21T10:20:28;4.43;;;3.05;;
65799;SDS011;52544;48.116;11.660;2022-08-21T10:25:56;3.08;;;2.75;;
65799;SDS011;52544;48.116;11.660;2022-08-21T10:28:37;3.08;;;2.60;;
65799;SDS011;52544;48.116;11.660;2022-08-21T10:31:26;3.92;;;2.88;;
65799;SDS011;52544;48.116;11.660;2022-08-21T10:34:11;10.93;;;3.22;;
65799;SDS011;52544;48.116;11.660;2022-08-21T10:39:33;3.50;;;2.92;;
65799;SDS011;52544;48.116;11.660;2022-08-21T10:42:21;6.05;;;2.97;;
65799;SDS011;52544;48.116;11.660;2022-08-21T10:45:06;5.60;;;4.07;;
65799;SDS011;52544;48.116;11.660;2022-08-21T10:47:40;3.88;;;2.97;;
65799;SDS011;52544;48.116;11.660;2022-08-21T10:50:17;3.00;;;2.60;;
65799;SDS011;52544;48.116;11.660;2022-08-21T10:53:11;4.68;;;2.90;;
65799;SDS011;52544;48.116;11.660;2022-08-21T10:58:57;5.72;;;2.90;;
65799;SDS011;52544;48.116;11.660;2022-08-21T11:04:18;3.33;;;2.75;;
65799;SDS011;52544;48.116;11.660;2022-08-21T11:06:46;3.83;;;3.10;;
65799;SDS011;52544;48.116;11.660;2022-08-21T11:09:20;5.45;;;2.92;;
65799;SDS011;52544;48.116;11.660;2022-08-21T11:17:06;6.35;;;3.40;;
65799;SDS011;52544;48.116;11.660;2022-08-21T11:19:36;3.47;;;2.50;;
65799;SDS011;52544;48.116;11.660;2022-08-21T11:24:58;5.45;;;2.70;;
65799;SDS011;52544;48.116;11.660;2022-08-21T11:27:42;3.70;;;2.83;;
65799;SDS011;52544;48.116;11.660;2022-08-21T11:30:08;4.80;;;3.10;;
65799;SDS011;52544;48.116;11.660;2022-08-21T11:45:53;4.57;;;2.97;;
65799;SDS011;52544;48.116;11.660;2022-08-21T11:48:31;3.75;;;2.63;;
65799;SDS011;52544;48.116;11.660;2022-08-21T11:51:12;4.10;;;2.90;;
65799;SDS011;52544;48.116;11.660;2022-08-21T11:56:38;4.18;;;2.63;;
65799;SDS011;52544;48.116;11.660;2022-08-21T11:59:10;4.32;;;2.85;;
65799;SDS011;52544;48.116;11.660;2022-08-21T12:01:45;3.15;;;2.60;;
65799;SDS011;52544;48.116;11.660;2022-08-21T12:06:50;3.97;;;2.33;;
65799;SDS011;52544;48.116;11.660;2022-08-21T12:11:59;4.38;;;2.97;;
65799;SDS011;52544;48.116;11.660;2022-08-21T12:14:45;3.50;;;2.55;;
65799;SDS011;52544;48.116;11.660;2022-08-21T12:17:19;3.53;;;2.72;;
65799;SDS011;52544;48.116;11.660;2022-08-21T12:19:56;3.28;;;2.65;;
65799;SDS011;52544;48.116;11.660;2022-08-21T12:22:36;4.00;;;2.50;;
65799;SDS011;52544;48.116;11.660;2022-08-21T12:25:06;4.45;;;2.72;;
65799;SDS011;52544;48.116;11.660;2022-08-21T12:27:47;4.40;;;2.97;;
65799;SDS011;52544;48.116;11.660;2022-08-21T12:33:00;3.17;;;2.83;;
65799;SDS011;52544;48.116;11.660;2022-08-21T12:35:31;4.80;;;2.53;;
65799;SDS011;52544;48.116;11.660;2022-08-21T12:38:04;3.45;;;2.65;;
65799;SDS011;52544;48.116;11.660;2022-08-21T12:40:47;3.47;;;2.78;;
65799;SDS011;52544;48.116;11.660;2022-08-21T12:43:21;4.95;;;2.53;;
65799;SDS011;52544;48.116;11.660;2022-08-21T12:45:54;4.00;;;2.97;;
65799;SDS011;52544;48.116;11.660;2022-08-21T12:48:21;2.95;;;2.50;;
65799;SDS011;52544;48.116;11.660;2022-08-21T12:50:55;5.03;;;2.75;;
65799;SDS011;52544;48.116;11.660;2022-08-21T12:55:51;3.58;;;2.90;;
65799;SDS011;52544;48.116;11.660;2022-08-21T12:58:21;4.40;;;2.78;;
65799;SDS011;52544;48.116;11.660;2022-08-21T13:00:52;5.10;;;2.80;;
65799;SDS011;52544;48.116;11.660;2022-08-21T13:03:25;6.53;;;2.97;;
65799;SDS011;52544;48.116;11.660;2022-08-21T13:05:51;3.65;;;2.92;;
65799;SDS011;52544;48.116;11.660;2022-08-21T13:08:18;4.63;;;3.47;;
65799;SDS011;52544;48.116;11.660;2022-08-21T13:10:45;6.55;;;3.10;;
65799;SDS011;52544;48.116;11.660;2022-08-21T13:13:24;4.38;;;3.08;;
65799;SDS011;52544;48.116;11.660;2022-08-21T13:15:55;4.80;;;3.03;;
65799;SDS011;52544;48.116;11.660;2022-08-21T13:18:24;4.10;;;2.92;;
65799;SDS011;52544;48.116;11.660;2022-08-21T13:20:52;4.13;;;2.72;;
65799;SDS011;52544;48.116;11.660;2022-08-21T13:23:38;3.42;;;2.80;;
65799;SDS011;52544;48.116;11.660;2022-08-21T13:26:11;4.25;;;2.70;;
65799;SDS011;52544;48.116;11.660;2022-08-21T13:28:42;4.00;;;2.78;;
65799;SDS011;52544;48.116;11.660;2022-08-21T13:31:09;4.30;;;3.20;;
65799;SDS011;52544;48.116;11.660;2022-08-21T13:33:35;5.32;;;2.90;;
65799;SDS011;52544;48.116;11.660;2022-08-21T13:38:33;4.90;;;2.92;;
65799;SDS011;52544;48.116;11.660;2022-08-21T13:43:33;3.25;;;2.70;;
65799;SDS011;52544;48.116;11.660;2022-08-21T13:46:00;3.47;;;2.75;;
65799;SDS011;52544;48.116;11.660;2022-08-21T13:48:28;7.15;;;4.93;;
65799;SDS011;52544;48.116;11.660;2022-08-21T13:50:57;3.80;;;3.08;;
65799;SDS011;52544;48.116;11.660;2022-08-21T13:55:57;6.88;;;3.42;;
65799;SDS011;52544;48.116;11.660;2022-08-21T13:58:26;5.18;;;2.55;;
65799;SDS011;52544;48.116;11.660;2022-08-21T14:00:54;6.05;;;2.88;;
65799;SDS011;52544;48.116;11.660;2022-08-21T14:03:32;3.70;;;2.97;;
65799;SDS011;52544;48.116;11.660;2022-08-21T14:06:00;4.47;;;2.63;;
65799;SDS011;52544;48.116;11.660;2022-08-21T14:10:56;3.22;;;2.65;;
65799;SDS011;52544;48.116;11.660;2022-08-21T14:13:36;5.32;;;2.80;;
65799;SDS011;52544;48.116;11.660;2022-08-21T14:16:03;3.58;;;3.08;;
65799;SDS011;52544;48.116;11.660;2022-08-21T14:18:42;6.35;;;3.03;;
65799;SDS011;52544;48.116;11.660;2022-08-21T14:21:13;6.47;;;2.78;;
65799;SDS011;52544;48.116;11.660;2022-08-21T14:26:54;4.10;;;2.80;;
65799;SDS011;52544;48.116;11.660;2022-08-21T14:29:22;4.95;;;2.80;;
65799;SDS011;52544;48.116;11.660;2022-08-21T14:31:55;5.68;;;2.25;;
65799;SDS011;52544;48.116;11.660;2022-08-21T14:34:23;5.50;;;2.80;;
65799;SDS011;52544;48.116;11.660;2022-08-21T14:36:51;3.03;;;2.63;;
65799;SDS011;52544;48.116;11.660;2022-08-21T14:39:17;4.97;;;2.65;;
65799;SDS011;52544;48.116;11.660;2022-08-21T14:41:43;3.50;;;2.63;;
65799;SDS011;52544;48.116;11.660;2022-08-21T14:44:11;3.22;;;2.50;;
65799;SDS011;52544;48.116;11.660;2022-08-21T14:46:38;6.05;;;2.78;;
65799;SDS011;52544;48.116;11.660;2022-08-21T14:49:03;4.07;;;3.08;;
65799;SDS011;52544;48.116;11.660;2022-08-21T14:51:29;3.55;;;2.70;;
65799;SDS011;52544;48.116;11.660;2022-08-21T14:53:55;6.50;;;2.88;;
65799;SDS011;52544;48.116;11.660;2022-08-21T14:56:20;3.83;;;2.75;;
65799;SDS011;52544;48.116;11.660;2022-08-21T14:58:47;3.42;;;2.53;;
65799;SDS011;52544;48.116;11.660;2022-08-21T15:01:15;5.10;;;2.72;;
65799;SDS011;52544;48.116;11.660;2022-08-21T15:03:43;3.72;;;2.40;;
65799;SDS011;52544;48.116;11.660;2022-08-21T15:06:09;3.42;;;2.40;;
65799;SDS011;52544;48.116;11.660;2022-08-21T15:08:35;4.20;;;2.53;;
65799;SDS011;52544;48.116;11.660;2022-08-21T15:11:01;5.20;;;2.70;;
65799;SDS011;52544;48.116;11.660;2022-08-21T15:13:28;5.38;;;2.70;;
65799;SDS011;52544;48.116;11.660;2022-08-21T15:15:54;3.80;;;2.70;;
65799;SDS011;52544;48.116;11.660;2022-08-21T15:18:21;5.28;;;2.78;;
65799;SDS011;52544;48.116;11.660;2022-08-21T15:20:48;3.80;;;2.60;;
65799;SDS011;52544;48.116;11.660;2022-08-21T15:23:14;4.20;;;2.50;;
65799;SDS011;52544;48.116;11.660;2022-08-21T15:25:40;4.45;;;2.60;;
65799;SDS011;52544;48.116;11.660;2022-08-21T15:28:07;5.60;;;2.55;;
65799;SDS011;52544;48.116;11.660;2022-08-21T15:30:33;3.33;;;2.35;;
65799;SDS011;52544;48.116;11.660;2022-08-21T15:33:00;2.70;;;2.42;;
65799;SDS011;52544;48.116;11.660;2022-08-21T15:35:25;7.63;;;2.83;;
65799;SDS011;52544;48.116;11.660;2022-08-21T15:37:50;3.72;;;2.88;;
65799;SDS011;52544;48.116;11.660;2022-08-21T15:40:16;7.38;;;4.35;;
65799;SDS011;52544;48.116;11.660;2022-08-21T15:42:42;5.82;;;4.30;;
65799;SDS011;52544;48.116;11.660;2022-08-21T15:45:09;23.92;;;11.18;;
65799;SDS011;52544;48.116;11.660;2022-08-21T15:47:36;10.45;;;6.00;;
65799;SDS011;52544;48.116;11.660;2022-08-21T15:50:04;28.23;;;19.17;;
65799;SDS011;52544;48.116;11.660;2022-08-21T15:52:32;78.15;;;45.78;;
65799;SDS011;52544;48.116;11.660;2022-08-21T15:54:58;34.00;;;21.92;;
65799;SDS011;52544;48.116;11.660;2022-08-21T15:57:24;32.83;;;16.73;;
65799;SDS011;52544;48.116;11.660;2022-08-21T15:59:51;16.13;;;8.82;;
65799;SDS011;52544;48.116;11.660;2022-08-21T16:02:22;7.35;;;4.70;;
65799;SDS011;52544;48.116;11.660;2022-08-21T16:04:50;10.40;;;5.57;;
65799;SDS011;52544;48.116;11.660;2022-08-21T16:07:16;6.15;;;3.63;;
65799;SDS011;52544;48.116;11.660;2022-08-21T16:09:41;13.25;;;6.32;;